OYCLK EKSN-ENBR
Flight info
| Callsign | OYCLK |
|---|---|
| Flight time | N/A |
| Altitude | 15000 |
| Route | EKSN DCT BINRO DCT ENBR |
| Aircraft | C510/M-G/CHARLIE |
Departure
| Time | 2026-05-04 17:23 |
|---|---|
| Airport | Sindal Airport (EKSN) |
Arrival
| Time | N/A |
|---|---|
| Airport | Bergen Airport, Flesland (ENBR) |
| Time | Latitude | Longitude | Altitude | Speed | Heading |
|---|---|---|---|---|---|
| 2026-05-04 17:11 | 57.50453 | 10.22339 | 90 ft | 0 kts | 230° |
| 2026-05-04 17:16 | 57.50440 | 10.22333 | 90 ft | 2 kts | 159° |
| 2026-05-04 17:17 | 57.50431 | 10.22373 | 90 ft | 3 kts | 95° |
| 2026-05-04 17:17 | 57.50393 | 10.22414 | 90 ft | 0 kts | 184° |
| 2026-05-04 17:18 | 57.50388 | 10.22414 | 90 ft | 1 kts | 181° |
| 2026-05-04 17:18 | 57.50341 | 10.22449 | 90 ft | 5 kts | 111° |
| 2026-05-04 17:19 | 57.50343 | 10.22673 | 90 ft | 10 kts | 87° |
| 2026-05-04 17:19 | 57.50357 | 10.23083 | 87 ft | 16 kts | 87° |
| 2026-05-04 17:20 | 57.50367 | 10.23452 | 87 ft | 9 kts | 88° |
| 2026-05-04 17:20 | 57.50369 | 10.23624 | 89 ft | 4 kts | 88° |
| 2026-05-04 17:20 | 57.50370 | 10.23692 | 90 ft | 6 kts | 87° |
| 2026-05-04 17:21 | 57.50389 | 10.23740 | 90 ft | 4 kts | 222° |
| 2026-05-04 17:21 | 57.50381 | 10.23714 | 90 ft | 0 kts | 266° |
| 2026-05-04 17:23 | 57.50372 | 10.23432 | 87 ft | 61 kts | 267° |
| 2026-05-04 17:23 | 57.50324 | 10.20681 | 925 ft | 106 kts | 271° |
| 2026-05-04 17:24 | 57.50310 | 10.19249 | 1735 ft | 100 kts | 271° |
| 2026-05-04 17:24 | 57.49944 | 10.15554 | 3915 ft | 87 kts | 258° |
| 2026-05-04 17:25 | 57.49686 | 10.14381 | 4549 ft | 89 kts | 243° |
| 2026-05-04 17:25 | 57.48454 | 10.11987 | 5613 ft | 122 kts | 236° |
| 2026-05-04 17:26 | 57.48365 | 10.08649 | 7082 ft | 115 kts | 280° |
| 2026-05-04 17:26 | 57.50400 | 10.05188 | 9019 ft | 138 kts | 327° |